This is the latest recevied weather packets stored in our database for station/object KL7LK-13. If no packets are shown the sender has not sent any weather packets the latest 10 day(s).
| Time | Temp. | Humidity | Pressure | Rain* | Wind** | Luminosity | Snow |
|---|---|---|---|---|---|---|---|
| 1777974130 | 7.22° C | 78% | 1021.3 hPa | - | - | 0 W/m² | - |
| 1777973511 | 7.22° C | 77% | 1021.6 hPa | - | - | 0 W/m² | - |
| 1777971774 | 7.22° C | 77% | 1022.1 hPa | - | - | 0 W/m² | - |
| 1777970535 | 8.33° C | 75% | 1022.4 hPa | - | - | 0 W/m² | - |
| 1777965702 | 10.56° C | 67% | 1023.2 hPa | - | - | 0 W/m² | - |
| 1777965103 | 10.56° C | 66% | 1023.3 hPa | - | - | 0 W/m² | - |
| 1777964587 | 10.56° C | 65% | 1023.4 hPa | - | - | 0 W/m² | - |
| 1777959764 | 11.67° C | 62% | 1023.7 hPa | - | - | 7 W/m² | - |
| 1777955529 | 11.11° C | 66% | 1025.3 hPa | - | - | 40 W/m² | - |
| 1777954909 | 11.67° C | 65% | 1025.5 hPa | - | - | 51 W/m² | - |
| 1777953173 | 11.11° C | 67% | 1026 hPa | - | - | 43 W/m² | - |
| 1777952554 | 11.11° C | 67% | 1026.2 hPa | - | - | 66 W/m² | - |
| 1777945982 | 11.67° C | 62% | 1028.8 hPa | - | - | 50 W/m² | - |
| 1777943007 | 12.22° C | 57% | 1029.5 hPa | - | - | 80 W/m² | - |
| 1777941808 | 12.78° C | 56% | 1029.9 hPa | - | - | 100 W/m² | - |
| 1777940527 | 12.78° C | 56% | 1030.2 hPa | - | - | 134 W/m² | - |
| 1777939411 | 12.22° C | 57% | 1030.5 hPa | - | - | 154 W/m² | - |
| 1777936928 | 12.78° C | 57% | 1031.3 hPa | - | - | 177 W/m² | - |
| 1777932816 | 12.22° C | 58% | 1032.6 hPa | - | - | 229 W/m² | - |
| 1777931577 | 12.22° C | 59% | 1033 hPa | - | - | 253 W/m² | - |
| 1777930957 | 11.67° C | 60% | 1033.2 hPa | - | - | 333 W/m² | - |
| 1777923767 | 10.56° C | 62% | 1035 hPa | - | - | 506 W/m² | - |
| 1777921411 | 9.44° C | 64% | 1035.5 hPa | - | - | 269 W/m² | - |
| 1777917196 | 8.33° C | 60% | 1036.3 hPa | - | - | 202 W/m² | - |
| 1777916576 | 8.33° C | 60% | 1036.4 hPa | - | - | 151 W/m² | - |
* Rain since midnight (hover to see other rain measurements)
** Current wind speed in m/s (hover to see current wind gust speed)